Hlavní strana
METAR-TAF:

METAR-TAF

Letiště :

Rowan County Airport

Salisbury, Severní Karolína, Spojené státy americké

zeměpisná šířka: 35-39N, zeměpisná délka: 080-31W, výška: 236 m

Aktuální stav počasí

Zpráva byla vytvořena před 11 minutami, v 22:15 UTC
Západoseverozápadní vítr 7 kt, proměnlivý mezi západním a severoseverozápadním
Teplota 11°C
Vlhkost vzduchu 58%
Tlak 1002 hPa
Viditelnost: 16.1 km
Zataženo ve výšce 5000 ft

METAR: KRUQ 302215Z AUTO 30007KT 270V330 10SM OVC050 11/03 A2960 RMK AO2 T01100031

Čas: 17:26 (22:26 UTC)


TAF: chybějící

Stav a předpovědi počasí z více než 4 000 letišť (zprávy METAR a TAF).

Červené a žluté tečky na mapě představují dostupné meteorologické stanice.

Když kurzor umístíte na tečku, zobrazí se název stanice.

Pak kliknutím zobrazíte stav a předpověď počasí.

Chcete-li změnit mapu, kliknutím na zelené tlačítko se znaménkem +mapu přiblížíte, kliknutím na zelené tlačítko se znaménkem – mapu oddálíte a kliknutím na zelené šipky přejdete na sousední mapy.


METAR-TAF: